sensor_id;sensor_type;location;lat;lon;timestamp;temperature;humidity
46732;DHT22;32477;51.474;5.696;2022-08-25T00:02:19;21.20;99.90
46732;DHT22;32477;51.474;5.696;2022-08-25T00:04:45;21.10;99.90
46732;DHT22;32477;51.474;5.696;2022-08-25T00:07:11;21.10;99.90
46732;DHT22;32477;51.474;5.696;2022-08-25T00:09:36;21.10;99.90
46732;DHT22;32477;51.474;5.696;2022-08-25T00:12:04;21.00;99.90
46732;DHT22;32477;51.474;5.696;2022-08-25T00:14:35;21.00;99.90
46732;DHT22;32477;51.474;5.696;2022-08-25T00:17:01;20.90;99.90
46732;DHT22;32477;51.474;5.696;2022-08-25T00:19:31;21.00;99.90
46732;DHT22;32477;51.474;5.696;2022-08-25T00:21:58;20.90;99.90
46732;DHT22;32477;51.474;5.696;2022-08-25T00:24:25;20.90;99.90
46732;DHT22;32477;51.474;5.696;2022-08-25T00:26:52;20.80;99.90
46732;DHT22;32477;51.474;5.696;2022-08-25T00:29:20;20.70;99.90
46732;DHT22;32477;51.474;5.696;2022-08-25T00:31:46;20.60;99.90
46732;DHT22;32477;51.474;5.696;2022-08-25T00:34:15;20.50;99.90
46732;DHT22;32477;51.474;5.696;2022-08-25T00:36:42;20.40;99.90
46732;DHT22;32477;51.474;5.696;2022-08-25T00:39:08;20.40;99.90
46732;DHT22;32477;51.474;5.696;2022-08-25T00:41:34;20.40;99.90
46732;DHT22;32477;51.474;5.696;2022-08-25T00:44:03;20.30;99.90
46732;DHT22;32477;51.474;5.696;2022-08-25T00:46:51;20.20;99.90
46732;DHT22;32477;51.474;5.696;2022-08-25T00:49:28;20.10;99.90
46732;DHT22;32477;51.474;5.696;2022-08-25T00:51:57;20.00;99.90
46732;DHT22;32477;51.474;5.696;2022-08-25T00:54:38;19.90;99.90
46732;DHT22;32477;51.474;5.696;2022-08-25T00:57:07;19.90;99.90
46732;DHT22;32477;51.474;5.696;2022-08-25T00:59:33;19.80;99.90
46732;DHT22;32477;51.474;5.696;2022-08-25T01:02:00;19.80;99.90
46732;DHT22;32477;51.474;5.696;2022-08-25T01:04:26;19.90;99.90
46732;DHT22;32477;51.474;5.696;2022-08-25T01:06:52;19.80;99.90
46732;DHT22;32477;51.474;5.696;2022-08-25T01:09:18;19.80;99.90
46732;DHT22;32477;51.474;5.696;2022-08-25T01:11:45;19.80;99.90
46732;DHT22;32477;51.474;5.696;2022-08-25T01:14:14;19.70;99.90
46732;DHT22;32477;51.474;5.696;2022-08-25T01:16:40;19.70;99.90
46732;DHT22;32477;51.474;5.696;2022-08-25T01:19:07;19.60;99.90
46732;DHT22;32477;51.474;5.696;2022-08-25T01:21:40;19.60;99.90
46732;DHT22;32477;51.474;5.696;2022-08-25T01:24:10;19.50;99.90
46732;DHT22;32477;51.474;5.696;2022-08-25T01:26:38;19.50;99.90
46732;DHT22;32477;51.474;5.696;2022-08-25T01:29:08;19.50;99.90
46732;DHT22;32477;51.474;5.696;2022-08-25T01:31:48;19.50;99.90
46732;DHT22;32477;51.474;5.696;2022-08-25T01:34:14;19.40;99.90
46732;DHT22;32477;51.474;5.696;2022-08-25T01:36:42;19.40;99.90
46732;DHT22;32477;51.474;5.696;2022-08-25T01:39:09;19.40;99.90
46732;DHT22;32477;51.474;5.696;2022-08-25T01:44:13;19.20;99.90
46732;DHT22;32477;51.474;5.696;2022-08-25T01:46:39;19.20;99.90
46732;DHT22;32477;51.474;5.696;2022-08-25T01:49:05;19.20;99.90
46732;DHT22;32477;51.474;5.696;2022-08-25T01:51:47;19.10;99.90
46732;DHT22;32477;51.474;5.696;2022-08-25T01:54:15;19.10;99.90
46732;DHT22;32477;51.474;5.696;2022-08-25T01:56:41;19.00;99.90
46732;DHT22;32477;51.474;5.696;2022-08-25T01:59:07;18.90;99.90
46732;DHT22;32477;51.474;5.696;2022-08-25T02:01:32;19.00;99.90
46732;DHT22;32477;51.474;5.696;2022-08-25T02:03:58;19.00;99.90
46732;DHT22;32477;51.474;5.696;2022-08-25T02:06:29;19.00;99.90
46732;DHT22;32477;51.474;5.696;2022-08-25T02:09:02;19.00;99.90
46732;DHT22;32477;51.474;5.696;2022-08-25T02:11:30;19.00;99.90
46732;DHT22;32477;51.474;5.696;2022-08-25T02:13:56;19.00;99.90
46732;DHT22;32477;51.474;5.696;2022-08-25T02:16:25;19.10;99.90
46732;DHT22;32477;51.474;5.696;2022-08-25T02:18:53;19.10;99.90
46732;DHT22;32477;51.474;5.696;2022-08-25T02:21:19;19.20;99.90
46732;DHT22;32477;51.474;5.696;2022-08-25T02:23:44;19.20;99.90
46732;DHT22;32477;51.474;5.696;2022-08-25T02:26:10;19.20;99.90
46732;DHT22;32477;51.474;5.696;2022-08-25T02:28:36;19.20;99.90
46732;DHT22;32477;51.474;5.696;2022-08-25T02:31:04;19.20;99.90
46732;DHT22;32477;51.474;5.696;2022-08-25T02:33:29;19.20;99.90
46732;DHT22;32477;51.474;5.696;2022-08-25T02:35:59;19.10;99.90
46732;DHT22;32477;51.474;5.696;2022-08-25T02:38:26;19.00;99.90
46732;DHT22;32477;51.474;5.696;2022-08-25T02:40:57;19.00;99.90
46732;DHT22;32477;51.474;5.696;2022-08-25T02:43:23;19.00;99.90
46732;DHT22;32477;51.474;5.696;2022-08-25T02:45:50;18.90;99.90
46732;DHT22;32477;51.474;5.696;2022-08-25T02:48:16;18.90;99.90
46732;DHT22;32477;51.474;5.696;2022-08-25T02:50:46;18.90;99.90
46732;DHT22;32477;51.474;5.696;2022-08-25T02:53:12;18.90;99.90
46732;DHT22;32477;51.474;5.696;2022-08-25T02:55:38;18.90;99.90
46732;DHT22;32477;51.474;5.696;2022-08-25T02:58:04;18.90;99.90
46732;DHT22;32477;51.474;5.696;2022-08-25T03:00:30;18.90;99.90
46732;DHT22;32477;51.474;5.696;2022-08-25T03:02:56;18.90;99.90
46732;DHT22;32477;51.474;5.696;2022-08-25T03:05:21;18.90;99.90
46732;DHT22;32477;51.474;5.696;2022-08-25T03:07:47;18.90;99.90
46732;DHT22;32477;51.474;5.696;2022-08-25T03:10:16;18.90;99.90
46732;DHT22;32477;51.474;5.696;2022-08-25T03:12:43;18.90;99.90
46732;DHT22;32477;51.474;5.696;2022-08-25T03:15:11;18.80;99.90
46732;DHT22;32477;51.474;5.696;2022-08-25T03:17:37;18.80;99.90
46732;DHT22;32477;51.474;5.696;2022-08-25T03:20:04;18.80;99.90
46732;DHT22;32477;51.474;5.696;2022-08-25T03:22:30;18.70;99.90
46732;DHT22;32477;51.474;5.696;2022-08-25T03:24:56;18.70;99.90
46732;DHT22;32477;51.474;5.696;2022-08-25T03:27:41;18.70;99.90
46732;DHT22;32477;51.474;5.696;2022-08-25T03:30:07;18.70;99.90
46732;DHT22;32477;51.474;5.696;2022-08-25T03:32:33;18.70;99.90
46732;DHT22;32477;51.474;5.696;2022-08-25T03:34:59;18.80;99.90
46732;DHT22;32477;51.474;5.696;2022-08-25T03:37:26;18.80;99.90
46732;DHT22;32477;51.474;5.696;2022-08-25T03:39:51;18.80;99.90
46732;DHT22;32477;51.474;5.696;2022-08-25T03:42:17;18.90;99.90
46732;DHT22;32477;51.474;5.696;2022-08-25T03:44:44;18.90;99.90
46732;DHT22;32477;51.474;5.696;2022-08-25T03:47:09;18.90;99.90
46732;DHT22;32477;51.474;5.696;2022-08-25T03:49:35;18.90;99.90
46732;DHT22;32477;51.474;5.696;2022-08-25T03:52:01;19.00;99.90
46732;DHT22;32477;51.474;5.696;2022-08-25T03:54:27;19.00;99.90
46732;DHT22;32477;51.474;5.696;2022-08-25T03:56:53;19.00;99.90
46732;DHT22;32477;51.474;5.696;2022-08-25T03:59:19;18.90;99.90
46732;DHT22;32477;51.474;5.696;2022-08-25T04:01:46;18.80;99.90
46732;DHT22;32477;51.474;5.696;2022-08-25T04:04:13;18.80;99.90
46732;DHT22;32477;51.474;5.696;2022-08-25T04:06:40;18.80;99.90
46732;DHT22;32477;51.474;5.696;2022-08-25T04:09:06;18.80;99.90
46732;DHT22;32477;51.474;5.696;2022-08-25T04:11:32;18.80;99.90
46732;DHT22;32477;51.474;5.696;2022-08-25T04:13:58;18.90;99.90
46732;DHT22;32477;51.474;5.696;2022-08-25T04:16:28;18.90;99.90
46732;DHT22;32477;51.474;5.696;2022-08-25T04:18:59;18.90;99.90
46732;DHT22;32477;51.474;5.696;2022-08-25T04:21:26;18.90;99.90
46732;DHT22;32477;51.474;5.696;2022-08-25T04:23:53;19.00;99.90
46732;DHT22;32477;51.474;5.696;2022-08-25T04:26:25;19.00;99.90
46732;DHT22;32477;51.474;5.696;2022-08-25T04:28:52;19.00;99.90
46732;DHT22;32477;51.474;5.696;2022-08-25T04:31:19;19.00;99.90
46732;DHT22;32477;51.474;5.696;2022-08-25T04:33:46;19.00;99.90
46732;DHT22;32477;51.474;5.696;2022-08-25T04:36:14;19.10;99.90
46732;DHT22;32477;51.474;5.696;2022-08-25T04:38:41;19.10;99.90
46732;DHT22;32477;51.474;5.696;2022-08-25T04:41:08;19.20;99.90
46732;DHT22;32477;51.474;5.696;2022-08-25T04:43:35;19.20;99.90
46732;DHT22;32477;51.474;5.696;2022-08-25T04:46:06;19.30;99.90
46732;DHT22;32477;51.474;5.696;2022-08-25T04:48:32;19.30;99.90
46732;DHT22;32477;51.474;5.696;2022-08-25T04:51:04;19.40;99.90
46732;DHT22;32477;51.474;5.696;2022-08-25T04:53:31;19.60;99.90
46732;DHT22;32477;51.474;5.696;2022-08-25T04:55:57;19.60;99.90
46732;DHT22;32477;51.474;5.696;2022-08-25T04:58:22;19.60;99.90
46732;DHT22;32477;51.474;5.696;2022-08-25T05:00:48;19.80;99.90
46732;DHT22;32477;51.474;5.696;2022-08-25T05:03:13;19.80;99.90
46732;DHT22;32477;51.474;5.696;2022-08-25T05:05:39;19.90;99.90
46732;DHT22;32477;51.474;5.696;2022-08-25T05:08:05;19.90;99.90
46732;DHT22;32477;51.474;5.696;2022-08-25T05:10:32;19.90;99.90
46732;DHT22;32477;51.474;5.696;2022-08-25T05:12:58;19.80;99.90
46732;DHT22;32477;51.474;5.696;2022-08-25T05:15:25;19.80;99.90
46732;DHT22;32477;51.474;5.696;2022-08-25T05:18:09;19.80;99.90
46732;DHT22;32477;51.474;5.696;2022-08-25T05:20:36;19.80;99.90
46732;DHT22;32477;51.474;5.696;2022-08-25T05:23:02;19.80;99.90
46732;DHT22;32477;51.474;5.696;2022-08-25T05:25:28;19.80;99.90
46732;DHT22;32477;51.474;5.696;2022-08-25T05:27:54;19.90;99.90
46732;DHT22;32477;51.474;5.696;2022-08-25T05:30:19;20.00;99.90
46732;DHT22;32477;51.474;5.696;2022-08-25T05:32:45;20.10;99.90
46732;DHT22;32477;51.474;5.696;2022-08-25T05:35:11;20.30;99.90
46732;DHT22;32477;51.474;5.696;2022-08-25T05:37:36;20.40;99.90
46732;DHT22;32477;51.474;5.696;2022-08-25T05:40:04;20.50;99.90
46732;DHT22;32477;51.474;5.696;2022-08-25T05:42:30;20.70;99.90
46732;DHT22;32477;51.474;5.696;2022-08-25T05:44:56;21.10;99.90
46732;DHT22;32477;51.474;5.696;2022-08-25T05:47:21;21.40;99.90
46732;DHT22;32477;51.474;5.696;2022-08-25T05:49:47;21.70;99.90
46732;DHT22;32477;51.474;5.696;2022-08-25T05:52:12;21.80;99.90
46732;DHT22;32477;51.474;5.696;2022-08-25T05:54:38;22.00;99.90
46732;DHT22;32477;51.474;5.696;2022-08-25T05:57:05;22.50;99.90
46732;DHT22;32477;51.474;5.696;2022-08-25T05:59:30;22.80;98.90
46732;DHT22;32477;51.474;5.696;2022-08-25T06:01:56;23.10;98.30
46732;DHT22;32477;51.474;5.696;2022-08-25T06:04:40;23.40;97.70
46732;DHT22;32477;51.474;5.696;2022-08-25T06:07:05;23.90;96.90
46732;DHT22;32477;51.474;5.696;2022-08-25T06:09:31;24.10;96.10
46732;DHT22;32477;51.474;5.696;2022-08-25T06:11:57;24.50;95.90
46732;DHT22;32477;51.474;5.696;2022-08-25T06:14:23;24.80;95.10
46732;DHT22;32477;51.474;5.696;2022-08-25T06:16:49;25.00;94.60
46732;DHT22;32477;51.474;5.696;2022-08-25T06:19:16;25.20;94.10
46732;DHT22;32477;51.474;5.696;2022-08-25T06:21:42;25.30;93.80
46732;DHT22;32477;51.474;5.696;2022-08-25T06:24:08;25.50;93.70
46732;DHT22;32477;51.474;5.696;2022-08-25T06:26:35;25.80;93.00
46732;DHT22;32477;51.474;5.696;2022-08-25T06:29:01;26.00;93.00
46732;DHT22;32477;51.474;5.696;2022-08-25T06:31:27;26.10;92.30
46732;DHT22;32477;51.474;5.696;2022-08-25T06:33:53;26.10;92.30
46732;DHT22;32477;51.474;5.696;2022-08-25T06:36:19;26.30;92.00
46732;DHT22;32477;51.474;5.696;2022-08-25T06:38:45;26.60;91.90
46732;DHT22;32477;51.474;5.696;2022-08-25T06:41:12;27.00;91.40
46732;DHT22;32477;51.474;5.696;2022-08-25T06:43:40;27.40;91.00
46732;DHT22;32477;51.474;5.696;2022-08-25T06:46:17;27.50;90.80
46732;DHT22;32477;51.474;5.696;2022-08-25T06:48:43;27.40;90.40
46732;DHT22;32477;51.474;5.696;2022-08-25T06:51:13;27.70;90.20
46732;DHT22;32477;51.474;5.696;2022-08-25T06:53:39;27.90;90.00
46732;DHT22;32477;51.474;5.696;2022-08-25T06:56:05;27.90;89.70
46732;DHT22;32477;51.474;5.696;2022-08-25T06:58:31;28.10;89.50
46732;DHT22;32477;51.474;5.696;2022-08-25T07:01:06;28.40;89.00
46732;DHT22;32477;51.474;5.696;2022-08-25T07:03:33;28.50;87.90
46732;DHT22;32477;51.474;5.696;2022-08-25T07:05:58;28.60;87.90
46732;DHT22;32477;51.474;5.696;2022-08-25T07:08:24;28.80;87.70
46732;DHT22;32477;51.474;5.696;2022-08-25T07:10:50;29.00;86.70
46732;DHT22;32477;51.474;5.696;2022-08-25T07:13:16;29.30;85.60
46732;DHT22;32477;51.474;5.696;2022-08-25T07:15:42;29.50;85.10
46732;DHT22;32477;51.474;5.696;2022-08-25T07:18:08;29.60;84.90
46732;DHT22;32477;51.474;5.696;2022-08-25T07:20:37;29.60;84.90
46732;DHT22;32477;51.474;5.696;2022-08-25T07:23:03;29.50;84.30
46732;DHT22;32477;51.474;5.696;2022-08-25T07:25:29;29.70;83.90
46732;DHT22;32477;51.474;5.696;2022-08-25T07:27:55;30.10;84.00
46732;DHT22;32477;51.474;5.696;2022-08-25T07:30:20;30.20;82.50
46732;DHT22;32477;51.474;5.696;2022-08-25T07:32:46;30.30;82.10
46732;DHT22;32477;51.474;5.696;2022-08-25T07:35:12;30.20;81.80
46732;DHT22;32477;51.474;5.696;2022-08-25T07:37:54;30.50;81.80
46732;DHT22;32477;51.474;5.696;2022-08-25T07:40:26;30.90;80.80
46732;DHT22;32477;51.474;5.696;2022-08-25T07:42:56;30.90;80.90
46732;DHT22;32477;51.474;5.696;2022-08-25T07:45:24;31.50;80.60
46732;DHT22;32477;51.474;5.696;2022-08-25T07:48:00;31.60;80.30
46732;DHT22;32477;51.474;5.696;2022-08-25T07:50:27;32.00;79.80
46732;DHT22;32477;51.474;5.696;2022-08-25T07:52:54;32.50;80.10
46732;DHT22;32477;51.474;5.696;2022-08-25T07:55:21;32.90;78.30
46732;DHT22;32477;51.474;5.696;2022-08-25T07:57:47;32.90;78.00
46732;DHT22;32477;51.474;5.696;2022-08-25T08:00:14;33.10;77.40
46732;DHT22;32477;51.474;5.696;2022-08-25T08:02:43;33.40;76.70
46732;DHT22;32477;51.474;5.696;2022-08-25T08:05:10;33.70;76.10
46732;DHT22;32477;51.474;5.696;2022-08-25T08:07:36;33.90;76.20
46732;DHT22;32477;51.474;5.696;2022-08-25T08:10:03;33.70;75.00
46732;DHT22;32477;51.474;5.696;2022-08-25T08:12:29;33.20;74.70
46732;DHT22;32477;51.474;5.696;2022-08-25T08:14:55;33.50;74.50
46732;DHT22;32477;51.474;5.696;2022-08-25T08:17:20;33.50;73.70
46732;DHT22;32477;51.474;5.696;2022-08-25T08:19:46;33.10;74.40
46732;DHT22;32477;51.474;5.696;2022-08-25T08:22:13;33.40;74.60
46732;DHT22;32477;51.474;5.696;2022-08-25T08:24:43;34.00;73.00
46732;DHT22;32477;51.474;5.696;2022-08-25T08:27:11;34.40;72.80
46732;DHT22;32477;51.474;5.696;2022-08-25T08:29:38;34.60;72.50
46732;DHT22;32477;51.474;5.696;2022-08-25T08:32:06;34.40;73.20
46732;DHT22;32477;51.474;5.696;2022-08-25T08:34:32;34.80;72.00
46732;DHT22;32477;51.474;5.696;2022-08-25T08:36:59;35.30;71.20
46732;DHT22;32477;51.474;5.696;2022-08-25T08:39:26;35.50;70.60
46732;DHT22;32477;51.474;5.696;2022-08-25T08:50:23;35.00;70.80
46732;DHT22;32477;51.474;5.696;2022-08-25T08:55:43;34.60;71.00
46732;DHT22;32477;51.474;5.696;2022-08-25T08:58:27;34.70;71.90
46732;DHT22;32477;51.474;5.696;2022-08-25T09:00:56;35.50;70.50
46732;DHT22;32477;51.474;5.696;2022-08-25T09:03:45;35.50;70.40
46732;DHT22;32477;51.474;5.696;2022-08-25T09:06:24;35.40;69.40
46732;DHT22;32477;51.474;5.696;2022-08-25T09:08:54;35.40;68.70
46732;DHT22;32477;51.474;5.696;2022-08-25T09:11:43;35.70;68.40
46732;DHT22;32477;51.474;5.696;2022-08-25T09:14:26;36.30;68.10
46732;DHT22;32477;51.474;5.696;2022-08-25T09:17:12;36.30;67.90
46732;DHT22;32477;51.474;5.696;2022-08-25T09:24:08;36.30;66.70
46732;DHT22;32477;51.474;5.696;2022-08-25T09:26:20;36.40;66.60
46732;DHT22;32477;51.474;5.696;2022-08-25T09:28:53;36.60;66.20
46732;DHT22;32477;51.474;5.696;2022-08-25T09:31:34;36.10;66.30
46732;DHT22;32477;51.474;5.696;2022-08-25T09:34:07;36.00;66.10
46732;DHT22;32477;51.474;5.696;2022-08-25T09:36:36;36.20;67.00
46732;DHT22;32477;51.474;5.696;2022-08-25T09:39:02;36.90;66.40
46732;DHT22;32477;51.474;5.696;2022-08-25T09:44:04;37.90;65.90
46732;DHT22;32477;51.474;5.696;2022-08-25T09:46:40;38.10;65.30
46732;DHT22;32477;51.474;5.696;2022-08-25T09:49:18;38.20;65.50
46732;DHT22;32477;51.474;5.696;2022-08-25T09:51:43;38.20;64.10
46732;DHT22;32477;51.474;5.696;2022-08-25T09:59:23;39.00;64.30
46732;DHT22;32477;51.474;5.696;2022-08-25T10:01:51;39.40;62.40
46732;DHT22;32477;51.474;5.696;2022-08-25T10:04:34;38.60;62.80
46732;DHT22;32477;51.474;5.696;2022-08-25T10:07:03;38.20;63.00
46732;DHT22;32477;51.474;5.696;2022-08-25T10:09:41;38.40;62.80
46732;DHT22;32477;51.474;5.696;2022-08-25T10:12:23;38.20;62.90
46732;DHT22;32477;51.474;5.696;2022-08-25T10:14:53;38.50;61.30
46732;DHT22;32477;51.474;5.696;2022-08-25T10:17:28;38.70;61.40
46732;DHT22;32477;51.474;5.696;2022-08-25T10:20:13;38.50;61.10
46732;DHT22;32477;51.474;5.696;2022-08-25T10:22:42;38.70;61.20
46732;DHT22;32477;51.474;5.696;2022-08-25T10:25:11;38.60;60.30
46732;DHT22;32477;51.474;5.696;2022-08-25T10:30:43;37.10;62.40
46732;DHT22;32477;51.474;5.696;2022-08-25T10:36:16;37.90;62.60
46732;DHT22;32477;51.474;5.696;2022-08-25T10:38:54;38.80;62.00
46732;DHT22;32477;51.474;5.696;2022-08-25T10:41:33;38.30;62.50
46732;DHT22;32477;51.474;5.696;2022-08-25T10:49:19;38.60;60.90
46732;DHT22;32477;51.474;5.696;2022-08-25T10:52:48;38.70;59.70
46732;DHT22;32477;51.474;5.696;2022-08-25T10:55:17;38.60;59.30
46732;DHT22;32477;51.474;5.696;2022-08-25T10:57:57;38.10;59.60
46732;DHT22;32477;51.474;5.696;2022-08-25T11:00:33;38.30;58.80
46732;DHT22;32477;51.474;5.696;2022-08-25T11:05:41;38.50;58.10
46732;DHT22;32477;51.474;5.696;2022-08-25T11:10:45;38.70;58.40
46732;DHT22;32477;51.474;5.696;2022-08-25T11:13:37;38.80;57.40
46732;DHT22;32477;51.474;5.696;2022-08-25T11:16:14;38.60;57.20
46732;DHT22;32477;51.474;5.696;2022-08-25T11:18:58;37.90;57.60
46732;DHT22;32477;51.474;5.696;2022-08-25T11:21:49;37.40;58.00
46732;DHT22;32477;51.474;5.696;2022-08-25T11:24:35;36.80;58.10
46732;DHT22;32477;51.474;5.696;2022-08-25T11:27:06;35.90;58.50
46732;DHT22;32477;51.474;5.696;2022-08-25T11:29:34;35.30;59.60
46732;DHT22;32477;51.474;5.696;2022-08-25T11:32:01;34.90;60.00
46732;DHT22;32477;51.474;5.696;2022-08-25T11:34:34;35.20;59.90
46732;DHT22;32477;51.474;5.696;2022-08-25T11:37:10;35.80;59.00
46732;DHT22;32477;51.474;5.696;2022-08-25T11:42:57;36.10;57.90
46732;DHT22;32477;51.474;5.696;2022-08-25T11:48:40;37.90;55.60
46732;DHT22;32477;51.474;5.696;2022-08-25T11:51:10;37.70;55.90
46732;DHT22;32477;51.474;5.696;2022-08-25T11:53:39;38.00;56.10
46732;DHT22;32477;51.474;5.696;2022-08-25T11:56:33;38.20;55.50
46732;DHT22;32477;51.474;5.696;2022-08-25T11:59:00;39.00;55.50
46732;DHT22;32477;51.474;5.696;2022-08-25T12:04:35;38.50;54.40
46732;DHT22;32477;51.474;5.696;2022-08-25T12:10:08;38.70;54.10
46732;DHT22;32477;51.474;5.696;2022-08-25T12:23:45;41.40;52.60
46732;DHT22;32477;51.474;5.696;2022-08-25T12:26:27;41.40;52.30
46732;DHT22;32477;51.474;5.696;2022-08-25T12:29:14;41.10;52.50
46732;DHT22;32477;51.474;5.696;2022-08-25T12:37:14;41.00;52.40
46732;DHT22;32477;51.474;5.696;2022-08-25T12:39:57;40.40;52.20
46732;DHT22;32477;51.474;5.696;2022-08-25T12:42:37;40.10;52.10
46732;DHT22;32477;51.474;5.696;2022-08-25T12:47:44;39.30;52.10
46732;DHT22;32477;51.474;5.696;2022-08-25T12:50:40;39.40;52.40
46732;DHT22;32477;51.474;5.696;2022-08-25T12:55:45;39.70;52.70
46732;DHT22;32477;51.474;5.696;2022-08-25T12:58:11;39.60;52.00
46732;DHT22;32477;51.474;5.696;2022-08-25T13:15:24;38.40;52.80
46732;DHT22;32477;51.474;5.696;2022-08-25T13:17:50;38.80;53.20
46732;DHT22;32477;51.474;5.696;2022-08-25T13:20:24;39.10;52.60
46732;DHT22;32477;51.474;5.696;2022-08-25T13:22:52;39.10;52.20
46732;DHT22;32477;51.474;5.696;2022-08-25T13:25:22;38.60;52.40
46732;DHT22;32477;51.474;5.696;2022-08-25T13:27:50;38.50;52.50
46732;DHT22;32477;51.474;5.696;2022-08-25T13:30:29;38.10;52.60
46732;DHT22;32477;51.474;5.696;2022-08-25T13:32:55;38.70;52.90
46732;DHT22;32477;51.474;5.696;2022-08-25T13:35:23;39.00;52.10
46732;DHT22;32477;51.474;5.696;2022-08-25T13:37:49;39.20;52.50
46732;DHT22;32477;51.474;5.696;2022-08-25T13:40:26;38.90;52.10
46732;DHT22;32477;51.474;5.696;2022-08-25T13:43:02;38.60;52.10
46732;DHT22;32477;51.474;5.696;2022-08-25T13:45:31;37.90;52.50
46732;DHT22;32477;51.474;5.696;2022-08-25T13:48:01;37.50;52.80
46732;DHT22;32477;51.474;5.696;2022-08-25T13:53:02;37.60;52.80
46732;DHT22;32477;51.474;5.696;2022-08-25T13:58:04;37.70;52.90
46732;DHT22;32477;51.474;5.696;2022-08-25T14:00:40;38.40;52.40
46732;DHT22;32477;51.474;5.696;2022-08-25T14:03:29;39.00;52.20
46732;DHT22;32477;51.474;5.696;2022-08-25T14:08:46;37.70;52.30
46732;DHT22;32477;51.474;5.696;2022-08-25T14:11:25;37.10;52.50
46732;DHT22;32477;51.474;5.696;2022-08-25T14:16:50;37.20;51.80
46732;DHT22;32477;51.474;5.696;2022-08-25T14:19:18;37.20;51.20
46732;DHT22;32477;51.474;5.696;2022-08-25T14:21:45;37.50;51.90
46732;DHT22;32477;51.474;5.696;2022-08-25T14:24:16;37.00;52.60
46732;DHT22;32477;51.474;5.696;2022-08-25T14:26:42;36.20;52.80
46732;DHT22;32477;51.474;5.696;2022-08-25T14:29:07;35.10;53.50
46732;DHT22;32477;51.474;5.696;2022-08-25T14:31:35;34.40;53.90
46732;DHT22;32477;51.474;5.696;2022-08-25T14:34:16;34.10;54.00
46732;DHT22;32477;51.474;5.696;2022-08-25T14:36:43;33.70;53.80
46732;DHT22;32477;51.474;5.696;2022-08-25T14:39:09;33.50;54.10
46732;DHT22;32477;51.474;5.696;2022-08-25T14:41:37;33.50;55.40
46732;DHT22;32477;51.474;5.696;2022-08-25T14:44:04;33.40;54.20
46732;DHT22;32477;51.474;5.696;2022-08-25T14:46:32;33.40;55.30
46732;DHT22;32477;51.474;5.696;2022-08-25T14:49:04;33.10;54.80
46732;DHT22;32477;51.474;5.696;2022-08-25T14:51:32;32.90;54.50
46732;DHT22;32477;51.474;5.696;2022-08-25T14:54:02;32.80;54.70
46732;DHT22;32477;51.474;5.696;2022-08-25T14:56:29;32.60;55.10
46732;DHT22;32477;51.474;5.696;2022-08-25T14:58:55;32.40;54.60
46732;DHT22;32477;51.474;5.696;2022-08-25T15:01:22;32.20;54.90
46732;DHT22;32477;51.474;5.696;2022-08-25T15:03:52;32.10;55.50
46732;DHT22;32477;51.474;5.696;2022-08-25T15:06:18;32.00;55.90
46732;DHT22;32477;51.474;5.696;2022-08-25T15:08:44;31.90;56.10
46732;DHT22;32477;51.474;5.696;2022-08-25T15:11:29;31.90;56.40
46732;DHT22;32477;51.474;5.696;2022-08-25T15:13:55;32.10;56.40
46732;DHT22;32477;51.474;5.696;2022-08-25T15:16:28;32.30;56.00
46732;DHT22;32477;51.474;5.696;2022-08-25T15:18:54;32.20;55.80
46732;DHT22;32477;51.474;5.696;2022-08-25T15:21:21;32.30;55.70
46732;DHT22;32477;51.474;5.696;2022-08-25T15:23:46;32.40;56.00
46732;DHT22;32477;51.474;5.696;2022-08-25T15:26:13;32.40;56.00
46732;DHT22;32477;51.474;5.696;2022-08-25T15:28:44;32.50;55.60
46732;DHT22;32477;51.474;5.696;2022-08-25T15:31:11;32.50;55.90
46732;DHT22;32477;51.474;5.696;2022-08-25T15:33:37;32.50;56.10
46732;DHT22;32477;51.474;5.696;2022-08-25T15:36:11;32.60;56.10
46732;DHT22;32477;51.474;5.696;2022-08-25T15:38:38;32.60;55.60
46732;DHT22;32477;51.474;5.696;2022-08-25T15:41:06;32.50;56.10
46732;DHT22;32477;51.474;5.696;2022-08-25T15:43:33;32.50;55.50
46732;DHT22;32477;51.474;5.696;2022-08-25T15:45:59;32.40;55.90
46732;DHT22;32477;51.474;5.696;2022-08-25T15:48:24;32.30;55.80
46732;DHT22;32477;51.474;5.696;2022-08-25T15:50:54;32.20;56.00
46732;DHT22;32477;51.474;5.696;2022-08-25T15:53:21;32.00;56.20
46732;DHT22;32477;51.474;5.696;2022-08-25T15:55:48;32.00;56.20
46732;DHT22;32477;51.474;5.696;2022-08-25T15:58:15;32.00;56.70
46732;DHT22;32477;51.474;5.696;2022-08-25T16:00:42;32.10;57.20
46732;DHT22;32477;51.474;5.696;2022-08-25T16:03:08;32.10;56.10
46732;DHT22;32477;51.474;5.696;2022-08-25T16:05:35;32.10;55.90
46732;DHT22;32477;51.474;5.696;2022-08-25T16:08:01;32.20;55.90
46732;DHT22;32477;51.474;5.696;2022-08-25T16:10:27;32.20;56.30
46732;DHT22;32477;51.474;5.696;2022-08-25T16:12:52;32.10;56.20
46732;DHT22;32477;51.474;5.696;2022-08-25T16:15:18;32.10;56.10
46732;DHT22;32477;51.474;5.696;2022-08-25T16:17:44;32.00;56.50
46732;DHT22;32477;51.474;5.696;2022-08-25T16:20:10;31.90;57.60
46732;DHT22;32477;51.474;5.696;2022-08-25T16:22:36;31.80;57.90
46732;DHT22;32477;51.474;5.696;2022-08-25T16:25:02;31.80;58.60
46732;DHT22;32477;51.474;5.696;2022-08-25T16:27:28;31.90;57.80
46732;DHT22;32477;51.474;5.696;2022-08-25T16:29:53;31.90;58.00
46732;DHT22;32477;51.474;5.696;2022-08-25T16:32:19;31.80;57.90
46732;DHT22;32477;51.474;5.696;2022-08-25T16:34:45;31.80;58.00
46732;DHT22;32477;51.474;5.696;2022-08-25T16:37:11;31.70;58.30
46732;DHT22;32477;51.474;5.696;2022-08-25T16:39:37;31.60;58.50
46732;DHT22;32477;51.474;5.696;2022-08-25T16:42:08;31.60;58.60
46732;DHT22;32477;51.474;5.696;2022-08-25T16:44:34;31.50;58.60
46732;DHT22;32477;51.474;5.696;2022-08-25T16:46:59;31.50;58.90
46732;DHT22;32477;51.474;5.696;2022-08-25T16:49:25;31.40;59.20
46732;DHT22;32477;51.474;5.696;2022-08-25T16:51:51;31.40;58.70
46732;DHT22;32477;51.474;5.696;2022-08-25T16:54:17;31.40;58.90
46732;DHT22;32477;51.474;5.696;2022-08-25T16:57:01;31.30;59.10
46732;DHT22;32477;51.474;5.696;2022-08-25T16:59:27;31.30;59.10
46732;DHT22;32477;51.474;5.696;2022-08-25T17:01:53;31.30;59.10
46732;DHT22;32477;51.474;5.696;2022-08-25T17:04:19;31.20;59.10
46732;DHT22;32477;51.474;5.696;2022-08-25T17:06:45;31.10;59.30
46732;DHT22;32477;51.474;5.696;2022-08-25T17:09:12;31.00;59.60
46732;DHT22;32477;51.474;5.696;2022-08-25T17:11:46;31.00;59.90
46732;DHT22;32477;51.474;5.696;2022-08-25T17:14:17;30.90;60.30
46732;DHT22;32477;51.474;5.696;2022-08-25T17:16:44;30.80;60.30
46732;DHT22;32477;51.474;5.696;2022-08-25T17:19:11;30.70;60.60
46732;DHT22;32477;51.474;5.696;2022-08-25T17:21:40;30.60;60.70
46732;DHT22;32477;51.474;5.696;2022-08-25T17:24:07;30.50;60.00
46732;DHT22;32477;51.474;5.696;2022-08-25T17:26:36;30.50;60.30